createdAt,value
2022-12-18T00:07:52.270Z,190.07
2022-12-18T00:17:56.091Z,200.53
2022-12-18T00:28:01.148Z,199.30
2022-12-18T00:38:04.843Z,200.07
2022-12-18T00:48:09.906Z,193.23
2022-12-18T00:58:16.138Z,202.40
2022-12-18T01:08:21.287Z,191.27
2022-12-18T01:18:24.941Z,210.00
2022-12-18T01:28:30.216Z,200.00
2022-12-18T01:38:34.029Z,205.17
2022-12-18T01:48:39.691Z,196.97
2022-12-18T01:58:52.969Z,196.60
2022-12-18T02:09:08.826Z,195.17
2022-12-18T02:19:36.077Z,208.37
2022-12-18T02:29:46.654Z,203.93
2022-12-18T02:39:52.412Z,194.93
2022-12-18T02:50:12.565Z,202.37
2022-12-18T03:00:21.552Z,199.83
2022-12-18T03:10:32.083Z,204.20
2022-12-18T03:20:39.019Z,201.23
2022-12-18T03:30:48.740Z,199.83
2022-12-18T03:41:02.254Z,205.10
2022-12-18T03:51:18.573Z,197.17
2022-12-18T04:01:28.971Z,205.60
2022-12-18T04:11:35.424Z,190.17
2022-12-18T04:21:41.025Z,202.33
2022-12-18T04:31:48.289Z,194.10
2022-12-18T04:41:53.442Z,198.33
2022-12-18T04:51:58.746Z,188.00
2022-12-18T05:02:02.451Z,195.27
2022-12-18T05:12:08.376Z,199.13
2022-12-18T05:22:12.513Z,194.93
2022-12-18T05:32:17.766Z,196.33
2022-12-18T05:42:21.637Z,196.90
2022-12-18T05:52:27.003Z,205.20
2022-12-18T06:02:31.007Z,206.03
2022-12-18T06:12:36.945Z,203.60
2022-12-18T06:22:43.575Z,200.13
2022-12-18T06:32:54.669Z,205.77
2022-12-18T06:43:00.310Z,213.93
2022-12-18T06:53:05.473Z,201.23
2022-12-18T07:03:11.689Z,212.50
2022-12-18T07:13:17.236Z,211.67
2022-12-18T07:23:20.883Z,212.27
2022-12-18T07:33:26.035Z,218.57
2022-12-18T07:43:30.452Z,217.93
2022-12-18T07:53:36.540Z,205.17
2022-12-18T08:03:42.904Z,220.17
2022-12-18T08:13:48.375Z,216.57
2022-12-18T08:23:56.791Z,214.10
2022-12-18T08:34:02.056Z,222.00
2022-12-18T08:44:38.340Z,234.23
2022-12-18T08:54:43.507Z,234.80
2022-12-18T09:04:55.464Z,219.73
2022-12-18T09:15:02.409Z,231.77
2022-12-18T09:25:08.955Z,227.53
2022-12-18T09:35:15.635Z,230.17
2022-12-18T09:45:20.596Z,229.50
2022-12-18T09:55:36.895Z,230.90
2022-12-18T10:05:55.447Z,233.47
2022-12-18T10:16:13.601Z,251.13
2022-12-18T10:26:17.729Z,250.53
2022-12-18T10:36:24.941Z,262.63
2022-12-18T10:46:29.520Z,255.13
2022-12-18T10:56:38.182Z,261.23
2022-12-18T11:07:00.995Z,268.10
2022-12-18T11:17:25.447Z,265.80
2022-12-18T11:27:32.400Z,256.37
2022-12-18T11:37:38.798Z,253.17
2022-12-18T11:47:48.661Z,267.60
2022-12-18T11:58:04.225Z,261.90
2022-12-18T12:08:17.749Z,255.23
2022-12-18T12:18:38.670Z,255.23
2022-12-18T12:29:20.974Z,260.13
2022-12-18T12:39:33.723Z,254.93
2022-12-18T12:49:40.581Z,263.87
2022-12-18T13:00:01.381Z,260.33
2022-12-18T13:10:33.382Z,257.00
2022-12-18T13:20:41.417Z,257.00
2022-12-18T13:30:53.743Z,258.97
2022-12-18T13:41:03.198Z,251.43
2022-12-18T13:51:11.378Z,260.17
2022-12-18T14:01:27.224Z,257.60
2022-12-18T14:11:32.702Z,249.17
2022-12-18T14:21:40.373Z,245.23
2022-12-18T14:31:43.909Z,231.60
2022-12-18T14:41:51.900Z,218.23
2022-12-18T14:52:04.437Z,214.00
2022-12-18T15:02:25.271Z,216.10
2022-12-18T15:12:38.779Z,216.00
2022-12-18T15:22:44.622Z,209.30
2022-12-18T15:32:49.970Z,212.27
2022-12-18T15:43:29.704Z,204.90
2022-12-18T15:53:35.581Z,197.80
2022-12-18T16:03:41.199Z,188.70
2022-12-18T16:13:45.077Z,197.70
2022-12-18T16:23:51.002Z,182.80
2022-12-18T16:34:13.680Z,179.80
2022-12-18T16:44:19.060Z,179.50
2022-12-18T16:54:22.780Z,181.23
2022-12-18T17:04:28.186Z,171.57
2022-12-18T17:14:33.087Z,171.33
2022-12-18T17:24:38.234Z,173.97
2022-12-18T17:34:42.246Z,178.40
2022-12-18T17:44:47.381Z,199.27
2022-12-18T17:54:51.133Z,185.57
2022-12-18T18:04:56.184Z,201.33
2022-12-18T18:14:59.943Z,153.17
2022-12-18T18:25:11.606Z,187.97
2022-12-18T18:35:30.960Z,180.57
2022-12-18T18:45:40.328Z,213.80
2022-12-18T18:55:51.697Z,202.13
2022-12-18T19:06:05.445Z,170.07
2022-12-18T19:16:10.834Z,193.10
2022-12-18T19:26:27.368Z,176.13
2022-12-18T19:36:33.460Z,192.50
2022-12-18T19:46:41.881Z,189.23
2022-12-18T19:56:48.739Z,186.07
2022-12-18T20:06:55.576Z,156.47
2022-12-18T20:16:59.270Z,159.77
2022-12-18T20:27:09.772Z,152.00
2022-12-18T20:37:17.193Z,193.87
2022-12-18T20:47:24.462Z,199.20
2022-12-18T20:57:28.468Z,176.27
2022-12-18T21:07:33.741Z,166.53
2022-12-18T21:17:44.678Z,165.87
2022-12-18T21:27:50.232Z,192.03
2022-12-18T21:37:54.077Z,181.90
2022-12-18T21:47:59.203Z,164.53
2022-12-18T21:58:02.971Z,177.17
2022-12-18T22:08:08.276Z,157.23
2022-12-18T22:18:13.581Z,160.30
2022-12-18T22:28:36.182Z,195.43
2022-12-18T22:38:40.007Z,176.83
2022-12-18T22:48:45.736Z,170.53
2022-12-18T22:58:50.339Z,162.40
2022-12-18T23:08:57.503Z,164.63
2022-12-18T23:19:01.220Z,179.53
2022-12-18T23:29:06.837Z,152.60
2022-12-18T23:39:17.471Z,176.40
2022-12-18T23:49:35.305Z,155.07
2022-12-18T23:59:39.481Z,154.97
